»·PEaware :: N24DF KSBA-KSBP

N24DF :: KSBA-KSBP

FLIGHT INFORMATION

Flight Status: Arrived
Operator: Privately registered:
United States
More flights under this callsign
Pilot: David F. (17152)
Aircraft: CESSNA 172 SKYHAWK
(C172)
More flights by this aircraft type
Origin: KSBA Santa Barbara Mun
United States
Destination: KSBP San Luis Co Regl
United States
More flights between these airports :: More routes between these airports
Route: +MQO
File this flight plan on PilotEdge
Remarks: DOF / 180804 REG / N24DF PER / A RMK / TCAS SIMBRIEF
Altitude:
(Current/Filed)
6,000ft
Speed:
(Current/Filed)
119kts
Departed: 04-Aug-18 02:28 PM
Arrived: 04-Aug-18 03:15 PM
Distance/Time
Traveled:
62nm/0:47
Distance/Time
To Go:
Arrived

Flight Plot

Page will automatically refresh every two minutes.


Map Options




Map Legend


Flown Route
Filed Route
Departure Airport
Arrival Airport
Navaid (VOR, NDB)
Fix

Horizontal Profiles

Position Reports

Time Latitude Longitude Heading Altitude Ground
Speed
04-Aug-18 13:54 34.425815 -119.836718 189 16ft 0kts
04-Aug-18 13:55 34.425815 -119.836718 189 16ft 0kts
04-Aug-18 13:56 34.425815 -119.836718 189 16ft 0kts
04-Aug-18 13:57 34.425815 -119.836718 189 16ft 0kts
04-Aug-18 13:58 34.425815 -119.836718 189 16ft 0kts
04-Aug-18 13:59 34.425815 -119.836718 189 16ft 0kts
04-Aug-18 14:00 34.425815 -119.836718 189 16ft 0kts
04-Aug-18 14:01 34.425815 -119.836718 189 16ft 0kts
04-Aug-18 14:02 34.425815 -119.836718 189 16ft 0kts
04-Aug-18 14:03 34.425815 -119.836718 189 16ft 0kts
04-Aug-18 14:04 34.425815 -119.836718 189 16ft 0kts
04-Aug-18 14:05 34.425815 -119.836718 189 16ft 0kts
04-Aug-18 14:06 34.425815 -119.836718 189 16ft 0kts
04-Aug-18 14:07 34.425815 -119.836718 189 16ft 0kts
04-Aug-18 14:08 34.425815 -119.836718 189 16ft 0kts
04-Aug-18 14:09 34.425815 -119.836718 189 16ft 0kts
04-Aug-18 14:10 34.425815 -119.836718 189 16ft 0kts
04-Aug-18 14:11 34.425815 -119.836718 189 16ft 0kts
04-Aug-18 14:12 34.425815 -119.836718 189 16ft 0kts
04-Aug-18 14:13 34.425815 -119.836718 189 16ft 0kts
04-Aug-18 14:14 34.425815 -119.836718 189 16ft 0kts
04-Aug-18 14:15 34.425815 -119.836718 189 16ft 0kts
04-Aug-18 14:16 34.425815 -119.836718 189 16ft 0kts
04-Aug-18 14:17 34.425815 -119.836718 189 16ft 0kts
04-Aug-18 14:18 34.425815 -119.836718 189 16ft 0kts
04-Aug-18 14:19 34.425815 -119.836718 189 16ft 0kts
04-Aug-18 14:20 34.425815 -119.836718 189 16ft 0kts
04-Aug-18 14:21 34.425815 -119.836718 189 16ft 0kts
04-Aug-18 14:22 34.425815 -119.836718 189 16ft 0kts
04-Aug-18 14:23 34.426784 -119.838170 300 16ft 8kts
04-Aug-18 14:24 34.429625 -119.839285 349 16ft 13kts
04-Aug-18 14:25 34.430677 -119.839795 276 16ft 0kts
04-Aug-18 14:26 34.430677 -119.839795 276 16ft 0kts
04-Aug-18 14:27 34.430677 -119.839795 276 16ft 0kts
04-Aug-18 14:28 34.429747 -119.840083 167 16ft 28kts
04-Aug-18 14:29 34.413984 -119.834694 169 778ft 62kts
04-Aug-18 14:30 34.394082 -119.835073 196 1719ft 74kts
04-Aug-18 14:31 34.376576 -119.848945 228 2640ft 80kts
04-Aug-18 14:32 34.355439 -119.849692 165 3564ft 83kts
04-Aug-18 14:33 34.333688 -119.838686 162 4415ft 86kts
04-Aug-18 14:34 34.311238 -119.828816 194 5215ft 84kts
04-Aug-18 14:35 34.309758 -119.851022 293 5949ft 82kts
04-Aug-18 14:36 34.323167 -119.882485 310 5983ft 118kts
04-Aug-18 14:37 34.348921 -119.907391 320 5981ft 115kts
04-Aug-18 14:38 34.374466 -119.930929 320 5981ft 116kts
04-Aug-18 14:39 34.400152 -119.954795 320 5981ft 116kts
04-Aug-18 14:40 34.425841 -119.978802 319 5979ft 117kts
04-Aug-18 14:41 34.451532 -120.002770 319 5976ft 116kts
04-Aug-18 14:42 34.477288 -120.026973 319 5972ft 117kts
04-Aug-18 14:43 34.503099 -120.051113 319 5968ft 116kts
04-Aug-18 14:44 34.528520 -120.075072 318 5965ft 115kts
04-Aug-18 14:45 34.553684 -120.099168 318 5963ft 115kts
04-Aug-18 14:46 34.578847 -120.122893 318 5962ft 114kts
04-Aug-18 14:47 34.603992 -120.146518 318 5962ft 114kts
04-Aug-18 14:48 34.629180 -120.170164 318 5962ft 114kts
04-Aug-18 14:49 34.654257 -120.193699 318 5962ft 114kts
04-Aug-18 14:50 34.679383 -120.217315 318 5962ft 114kts
04-Aug-18 14:51 34.704584 -120.240977 318 5962ft 114kts
04-Aug-18 14:52 34.729662 -120.264553 319 5965ft 114kts
04-Aug-18 14:53 34.754916 -120.288324 319 5971ft 115kts
04-Aug-18 14:54 34.780258 -120.312207 319 5976ft 115kts
04-Aug-18 14:55 34.805730 -120.336217 320 5981ft 116kts
04-Aug-18 14:56 34.831391 -120.360191 320 5984ft 116kts
04-Aug-18 14:57 34.857142 -120.384384 320 5987ft 117kts
04-Aug-18 14:58 34.882527 -120.409262 319 5989ft 117kts
04-Aug-18 14:59 34.908159 -120.434218 319 5989ft 117kts
04-Aug-18 15:00 34.933656 -120.459056 319 5989ft 117kts
04-Aug-18 15:01 34.959267 -120.484018 319 5989ft 117kts
04-Aug-18 15:02 34.984774 -120.508888 319 5988ft 117kts
04-Aug-18 15:03 35.011257 -120.532063 349 5971ft 120kts
04-Aug-18 15:04 35.041317 -120.512096 32 5483ft 126kts
04-Aug-18 15:05 35.069167 -120.487083 32 4970ft 119kts
04-Aug-18 15:06 35.095587 -120.463202 32 4351ft 123kts
04-Aug-18 15:07 35.123949 -120.453511 316 3550ft 114kts
04-Aug-18 15:08 35.143783 -120.481863 306 2937ft 103kts
04-Aug-18 15:09 35.158633 -120.505869 304 2904ft 82kts
04-Aug-18 15:10 35.174591 -120.531849 305 2489ft 100kts
04-Aug-18 15:11 35.189986 -120.558123 303 1906ft 90kts
04-Aug-18 15:12 35.202721 -120.580405 302 1418ft 78kts
04-Aug-18 15:13 35.215286 -120.602396 304 941ft 76kts
04-Aug-18 15:14 35.225224 -120.619796 303 540ft 58kts
04-Aug-18 15:15 35.233412 -120.634093 305 228ft 46kts
04-Aug-18 15:16 35.237105 -120.639975 8 216ft 10kts
04-Aug-18 15:17 35.237883 -120.640169 295 216ft 8kts
04-Aug-18 15:18 35.238559 -120.640102 106 216ft 0kts
04-Aug-18 15:19 35.238559 -120.640102 106 216ft 0kts
04-Aug-18 15:20 35.238559 -120.640102 106 216ft 0kts
04-Aug-18 15:21 35.231401 -120.630549 303 302ft 51kts

Navigation Log

Ident Type
Flight plan parsing failed, navigation log unavailable